sensor_id;sensor_type;location;lat;lon;timestamp;temperature;humidity
37276;DHT22;23166;51.150;21.620;2022-09-09T00:01:15;13.30;91.40
37276;DHT22;23166;51.150;21.620;2022-09-09T00:03:44;13.30;92.40
37276;DHT22;23166;51.150;21.620;2022-09-09T00:06:18;13.30;92.40
37276;DHT22;23166;51.150;21.620;2022-09-09T00:11:21;13.30;91.20
37276;DHT22;23166;51.150;21.620;2022-09-09T00:13:51;13.30;92.00
37276;DHT22;23166;51.150;21.620;2022-09-09T00:16:19;13.30;92.20
37276;DHT22;23166;51.150;21.620;2022-09-09T00:21:31;13.30;91.60
37276;DHT22;23166;51.150;21.620;2022-09-09T00:23:54;13.30;92.30
37276;DHT22;23166;51.150;21.620;2022-09-09T00:26:41;13.20;91.70
37276;DHT22;23166;51.150;21.620;2022-09-09T00:31:55;13.30;94.00
37276;DHT22;23166;51.150;21.620;2022-09-09T00:34:24;13.30;93.60
37276;DHT22;23166;51.150;21.620;2022-09-09T00:36:53;13.30;93.30
37276;DHT22;23166;51.150;21.620;2022-09-09T00:39:44;13.20;93.40
37276;DHT22;23166;51.150;21.620;2022-09-09T00:42:25;13.30;92.60
37276;DHT22;23166;51.150;21.620;2022-09-09T00:47:50;13.30;92.20
37276;DHT22;23166;51.150;21.620;2022-09-09T00:53:24;13.30;87.70
37276;DHT22;23166;51.150;21.620;2022-09-09T00:58:47;13.30;89.60
37276;DHT22;23166;51.150;21.620;2022-09-09T01:01:12;13.40;86.60
37276;DHT22;23166;51.150;21.620;2022-09-09T01:03:49;13.40;83.00
37276;DHT22;23166;51.150;21.620;2022-09-09T01:06:34;13.40;86.60
37276;DHT22;23166;51.150;21.620;2022-09-09T01:14:48;13.50;86.10
37276;DHT22;23166;51.150;21.620;2022-09-09T01:17:20;13.50;87.20
37276;DHT22;23166;51.150;21.620;2022-09-09T01:28:08;13.50;85.80
37276;DHT22;23166;51.150;21.620;2022-09-09T01:30:38;13.50;87.90
37276;DHT22;23166;51.150;21.620;2022-09-09T01:33:05;13.50;87.80
37276;DHT22;23166;51.150;21.620;2022-09-09T01:38:17;13.50;88.40
37276;DHT22;23166;51.150;21.620;2022-09-09T01:40:44;13.50;90.00
37276;DHT22;23166;51.150;21.620;2022-09-09T01:43:10;13.50;88.70
37276;DHT22;23166;51.150;21.620;2022-09-09T01:45:39;13.50;91.00
37276;DHT22;23166;51.150;21.620;2022-09-09T01:48:06;13.50;91.20
37276;DHT22;23166;51.150;21.620;2022-09-09T01:50:32;13.50;90.90
37276;DHT22;23166;51.150;21.620;2022-09-09T01:53:00;13.50;90.30
37276;DHT22;23166;51.150;21.620;2022-09-09T01:55:37;13.50;91.50
37276;DHT22;23166;51.150;21.620;2022-09-09T02:01:17;13.50;91.80
37276;DHT22;23166;51.150;21.620;2022-09-09T02:03:47;13.50;91.70
37276;DHT22;23166;51.150;21.620;2022-09-09T02:08:55;13.50;90.90
37276;DHT22;23166;51.150;21.620;2022-09-09T02:11:24;13.50;92.40
37276;DHT22;23166;51.150;21.620;2022-09-09T02:13:57;13.50;92.40
37276;DHT22;23166;51.150;21.620;2022-09-09T02:16:27;13.60;92.00
37276;DHT22;23166;51.150;21.620;2022-09-09T02:21:24;13.60;91.50
37276;DHT22;23166;51.150;21.620;2022-09-09T02:23:51;13.60;90.80
37276;DHT22;23166;51.150;21.620;2022-09-09T02:26:19;13.60;91.00
37276;DHT22;23166;51.150;21.620;2022-09-09T02:28:50;13.60;92.40
37276;DHT22;23166;51.150;21.620;2022-09-09T02:31:20;13.60;91.70
37276;DHT22;23166;51.150;21.620;2022-09-09T02:33:51;13.60;92.20
37276;DHT22;23166;51.150;21.620;2022-09-09T02:36:17;13.70;91.90
37276;DHT22;23166;51.150;21.620;2022-09-09T02:38:48;13.60;91.40
37276;DHT22;23166;51.150;21.620;2022-09-09T02:41:20;13.70;90.90
37276;DHT22;23166;51.150;21.620;2022-09-09T02:43:48;13.70;90.80
37276;DHT22;23166;51.150;21.620;2022-09-09T02:46:24;13.70;91.30
37276;DHT22;23166;51.150;21.620;2022-09-09T02:51:59;13.70;92.00
37276;DHT22;23166;51.150;21.620;2022-09-09T02:54:28;13.70;91.20
37276;DHT22;23166;51.150;21.620;2022-09-09T02:57:04;13.80;91.50
37276;DHT22;23166;51.150;21.620;2022-09-09T02:59:31;13.80;91.40
37276;DHT22;23166;51.150;21.620;2022-09-09T03:01:58;13.80;91.20
37276;DHT22;23166;51.150;21.620;2022-09-09T03:04:24;13.80;92.00
37276;DHT22;23166;51.150;21.620;2022-09-09T03:06:51;13.80;91.60
37276;DHT22;23166;51.150;21.620;2022-09-09T03:09:17;13.80;93.50
37276;DHT22;23166;51.150;21.620;2022-09-09T03:11:43;13.80;93.20
37276;DHT22;23166;51.150;21.620;2022-09-09T03:14:10;13.80;92.50
37276;DHT22;23166;51.150;21.620;2022-09-09T03:16:37;13.80;93.20
37276;DHT22;23166;51.150;21.620;2022-09-09T03:19:03;13.80;93.50
37276;DHT22;23166;51.150;21.620;2022-09-09T03:21:30;13.80;94.10
37276;DHT22;23166;51.150;21.620;2022-09-09T03:23:57;13.80;93.90
37276;DHT22;23166;51.150;21.620;2022-09-09T03:26:24;13.80;95.10
37276;DHT22;23166;51.150;21.620;2022-09-09T03:28:50;13.90;95.00
37276;DHT22;23166;51.150;21.620;2022-09-09T03:31:17;13.90;95.40
37276;DHT22;23166;51.150;21.620;2022-09-09T03:33:45;13.90;95.50
37276;DHT22;23166;51.150;21.620;2022-09-09T03:36:11;13.90;95.70
37276;DHT22;23166;51.150;21.620;2022-09-09T03:38:38;13.80;95.50
37276;DHT22;23166;51.150;21.620;2022-09-09T03:41:04;13.90;96.30
37276;DHT22;23166;51.150;21.620;2022-09-09T03:43:32;13.90;96.60
37276;DHT22;23166;51.150;21.620;2022-09-09T03:45:58;13.90;96.80
37276;DHT22;23166;51.150;21.620;2022-09-09T03:48:25;13.90;97.30
37276;DHT22;23166;51.150;21.620;2022-09-09T03:50:54;13.80;96.90
37276;DHT22;23166;51.150;21.620;2022-09-09T03:53:26;13.90;97.60
37276;DHT22;23166;51.150;21.620;2022-09-09T03:55:54;13.90;98.00
37276;DHT22;23166;51.150;21.620;2022-09-09T03:58:22;13.90;97.50
37276;DHT22;23166;51.150;21.620;2022-09-09T04:01:05;13.90;97.70
37276;DHT22;23166;51.150;21.620;2022-09-09T04:03:31;13.90;97.80
37276;DHT22;23166;51.150;21.620;2022-09-09T04:05:59;13.90;98.40
37276;DHT22;23166;51.150;21.620;2022-09-09T04:08:26;13.90;98.20
37276;DHT22;23166;51.150;21.620;2022-09-09T04:10:53;13.90;98.10
37276;DHT22;23166;51.150;21.620;2022-09-09T04:13:21;13.90;98.50
37276;DHT22;23166;51.150;21.620;2022-09-09T04:15:53;13.90;98.30
37276;DHT22;23166;51.150;21.620;2022-09-09T04:18:20;13.90;98.50
37276;DHT22;23166;51.150;21.620;2022-09-09T04:20:48;13.90;98.60
37276;DHT22;23166;51.150;21.620;2022-09-09T04:23:16;13.90;98.30
37276;DHT22;23166;51.150;21.620;2022-09-09T04:25:46;13.90;98.60
37276;DHT22;23166;51.150;21.620;2022-09-09T04:28:15;13.90;98.60
37276;DHT22;23166;51.150;21.620;2022-09-09T04:30:42;13.90;98.50
37276;DHT22;23166;51.150;21.620;2022-09-09T04:33:10;13.90;98.60
37276;DHT22;23166;51.150;21.620;2022-09-09T04:35:37;13.90;98.70
37276;DHT22;23166;51.150;21.620;2022-09-09T04:38:05;13.90;98.90
37276;DHT22;23166;51.150;21.620;2022-09-09T04:40:33;14.00;98.70
37276;DHT22;23166;51.150;21.620;2022-09-09T04:43:00;13.90;98.80
37276;DHT22;23166;51.150;21.620;2022-09-09T04:45:27;14.00;99.00
37276;DHT22;23166;51.150;21.620;2022-09-09T04:47:53;14.00;99.70
37276;DHT22;23166;51.150;21.620;2022-09-09T04:50:20;14.00;99.60
37276;DHT22;23166;51.150;21.620;2022-09-09T04:52:46;14.00;99.60
37276;DHT22;23166;51.150;21.620;2022-09-09T04:55:13;14.00;99.90
37276;DHT22;23166;51.150;21.620;2022-09-09T04:57:40;14.00;99.90
37276;DHT22;23166;51.150;21.620;2022-09-09T05:00:06;14.00;99.80
37276;DHT22;23166;51.150;21.620;2022-09-09T05:02:39;14.00;99.70
37276;DHT22;23166;51.150;21.620;2022-09-09T05:05:06;14.00;99.50
37276;DHT22;23166;51.150;21.620;2022-09-09T05:07:33;14.00;99.50
37276;DHT22;23166;51.150;21.620;2022-09-09T05:09:59;14.10;99.20
37276;DHT22;23166;51.150;21.620;2022-09-09T05:12:26;14.00;99.10
37276;DHT22;23166;51.150;21.620;2022-09-09T05:14:52;14.10;99.30
37276;DHT22;23166;51.150;21.620;2022-09-09T05:17:19;14.00;99.00
37276;DHT22;23166;51.150;21.620;2022-09-09T05:19:45;14.10;99.10
37276;DHT22;23166;51.150;21.620;2022-09-09T05:22:12;14.00;99.10
37276;DHT22;23166;51.150;21.620;2022-09-09T05:24:38;14.10;99.40
37276;DHT22;23166;51.150;21.620;2022-09-09T05:27:05;14.10;99.20
37276;DHT22;23166;51.150;21.620;2022-09-09T05:29:32;14.10;99.30
37276;DHT22;23166;51.150;21.620;2022-09-09T05:32:01;14.10;99.20
37276;DHT22;23166;51.150;21.620;2022-09-09T05:34:27;14.10;99.50
37276;DHT22;23166;51.150;21.620;2022-09-09T05:36:54;14.10;99.40
37276;DHT22;23166;51.150;21.620;2022-09-09T05:39:20;14.10;99.40
37276;DHT22;23166;51.150;21.620;2022-09-09T05:41:47;14.20;99.60
37276;DHT22;23166;51.150;21.620;2022-09-09T05:44:13;14.10;99.60
37276;DHT22;23166;51.150;21.620;2022-09-09T05:46:40;14.20;99.50
37276;DHT22;23166;51.150;21.620;2022-09-09T05:49:06;14.20;99.60
37276;DHT22;23166;51.150;21.620;2022-09-09T05:51:34;14.20;99.40
37276;DHT22;23166;51.150;21.620;2022-09-09T05:54:00;14.20;99.60
37276;DHT22;23166;51.150;21.620;2022-09-09T05:56:28;14.30;99.80
37276;DHT22;23166;51.150;21.620;2022-09-09T05:58:55;14.30;99.60
37276;DHT22;23166;51.150;21.620;2022-09-09T06:01:22;14.30;99.80
37276;DHT22;23166;51.150;21.620;2022-09-09T06:03:50;14.30;99.70
37276;DHT22;23166;51.150;21.620;2022-09-09T06:06:22;14.40;99.80
37276;DHT22;23166;51.150;21.620;2022-09-09T06:08:51;14.40;99.70
37276;DHT22;23166;51.150;21.620;2022-09-09T06:11:22;14.50;99.80
37276;DHT22;23166;51.150;21.620;2022-09-09T06:13:50;14.50;99.70
37276;DHT22;23166;51.150;21.620;2022-09-09T06:16:19;14.50;99.70
37276;DHT22;23166;51.150;21.620;2022-09-09T06:18:48;14.60;99.70
37276;DHT22;23166;51.150;21.620;2022-09-09T06:23:45;14.60;99.60
37276;DHT22;23166;51.150;21.620;2022-09-09T06:26:16;14.70;99.30
37276;DHT22;23166;51.150;21.620;2022-09-09T06:28:44;14.70;99.40
37276;DHT22;23166;51.150;21.620;2022-09-09T06:31:12;14.70;99.50
37276;DHT22;23166;51.150;21.620;2022-09-09T06:33:41;14.70;99.50
37276;DHT22;23166;51.150;21.620;2022-09-09T06:36:14;14.80;99.90
37276;DHT22;23166;51.150;21.620;2022-09-09T06:38:44;14.90;99.90
37276;DHT22;23166;51.150;21.620;2022-09-09T06:41:13;14.80;99.70
37276;DHT22;23166;51.150;21.620;2022-09-09T06:43:40;14.90;99.60
37276;DHT22;23166;51.150;21.620;2022-09-09T06:46:09;15.00;99.40
37276;DHT22;23166;51.150;21.620;2022-09-09T06:48:36;15.00;99.80
37276;DHT22;23166;51.150;21.620;2022-09-09T06:51:11;15.10;99.90
37276;DHT22;23166;51.150;21.620;2022-09-09T06:53:39;15.10;99.90
37276;DHT22;23166;51.150;21.620;2022-09-09T06:58:50;15.20;99.90
37276;DHT22;23166;51.150;21.620;2022-09-09T07:01:20;15.40;99.60
37276;DHT22;23166;51.150;21.620;2022-09-09T07:03:49;15.50;98.80
37276;DHT22;23166;51.150;21.620;2022-09-09T07:06:23;15.60;97.80
37276;DHT22;23166;51.150;21.620;2022-09-09T07:08:51;15.70;97.60
37276;DHT22;23166;51.150;21.620;2022-09-09T07:11:19;15.90;96.90
37276;DHT22;23166;51.150;21.620;2022-09-09T07:13:47;16.10;95.50
37276;DHT22;23166;51.150;21.620;2022-09-09T07:16:16;16.20;94.20
37276;DHT22;23166;51.150;21.620;2022-09-09T07:18:43;16.30;92.20
37276;DHT22;23166;51.150;21.620;2022-09-09T07:21:11;16.40;91.60
37276;DHT22;23166;51.150;21.620;2022-09-09T07:23:38;16.50;91.00
37276;DHT22;23166;51.150;21.620;2022-09-09T07:26:10;16.50;88.00
37276;DHT22;23166;51.150;21.620;2022-09-09T07:28:38;16.50;88.20
37276;DHT22;23166;51.150;21.620;2022-09-09T07:31:05;16.60;91.20
37276;DHT22;23166;51.150;21.620;2022-09-09T07:33:33;16.60;92.00
37276;DHT22;23166;51.150;21.620;2022-09-09T07:36:06;16.60;90.90
37276;DHT22;23166;51.150;21.620;2022-09-09T07:38:42;16.60;89.50
37276;DHT22;23166;51.150;21.620;2022-09-09T07:41:08;16.60;90.70
37276;DHT22;23166;51.150;21.620;2022-09-09T07:43:36;16.70;91.10
37276;DHT22;23166;51.150;21.620;2022-09-09T07:46:03;16.80;91.20
37276;DHT22;23166;51.150;21.620;2022-09-09T07:48:29;16.90;87.60
37276;DHT22;23166;51.150;21.620;2022-09-09T07:51:08;17.00;87.70
37276;DHT22;23166;51.150;21.620;2022-09-09T07:53:36;17.00;89.80
37276;DHT22;23166;51.150;21.620;2022-09-09T07:56:09;17.10;88.00
37276;DHT22;23166;51.150;21.620;2022-09-09T07:58:38;17.20;88.60
37276;DHT22;23166;51.150;21.620;2022-09-09T08:01:11;17.40;84.80
37276;DHT22;23166;51.150;21.620;2022-09-09T08:03:38;17.50;87.10
37276;DHT22;23166;51.150;21.620;2022-09-09T08:06:07;17.60;83.60
37276;DHT22;23166;51.150;21.620;2022-09-09T08:08:35;17.60;81.50
37276;DHT22;23166;51.150;21.620;2022-09-09T08:11:07;17.60;79.10
37276;DHT22;23166;51.150;21.620;2022-09-09T08:13:38;17.60;75.90
37276;DHT22;23166;51.150;21.620;2022-09-09T08:16:07;17.60;67.40
37276;DHT22;23166;51.150;21.620;2022-09-09T08:18:34;17.60;76.60
37276;DHT22;23166;51.150;21.620;2022-09-09T08:21:12;17.60;74.80
37276;DHT22;23166;51.150;21.620;2022-09-09T08:23:40;17.60;75.70
37276;DHT22;23166;51.150;21.620;2022-09-09T08:26:12;17.60;80.20
37276;DHT22;23166;51.150;21.620;2022-09-09T08:28:40;17.50;79.00
37276;DHT22;23166;51.150;21.620;2022-09-09T08:31:16;17.40;77.70
37276;DHT22;23166;51.150;21.620;2022-09-09T08:33:40;17.40;80.60
37276;DHT22;23166;51.150;21.620;2022-09-09T08:36:10;17.50;84.90
37276;DHT22;23166;51.150;21.620;2022-09-09T08:38:37;17.40;86.30
37276;DHT22;23166;51.150;21.620;2022-09-09T08:41:17;17.40;86.40
37276;DHT22;23166;51.150;21.620;2022-09-09T08:43:41;17.40;85.10
37276;DHT22;23166;51.150;21.620;2022-09-09T08:46:12;17.50;83.70
37276;DHT22;23166;51.150;21.620;2022-09-09T08:48:53;17.50;90.00
37276;DHT22;23166;51.150;21.620;2022-09-09T08:51:19;17.50;84.90
37276;DHT22;23166;51.150;21.620;2022-09-09T08:53:46;17.50;76.40
37276;DHT22;23166;51.150;21.620;2022-09-09T08:56:18;17.50;82.00
37276;DHT22;23166;51.150;21.620;2022-09-09T08:58:51;17.60;83.70
37276;DHT22;23166;51.150;21.620;2022-09-09T09:07:14;17.60;84.60
37276;DHT22;23166;51.150;21.620;2022-09-09T09:09:49;17.60;84.20
37276;DHT22;23166;51.150;21.620;2022-09-09T09:12:22;17.60;84.80
37276;DHT22;23166;51.150;21.620;2022-09-09T09:14:51;17.60;87.00
37276;DHT22;23166;51.150;21.620;2022-09-09T09:17:19;17.60;87.40
37276;DHT22;23166;51.150;21.620;2022-09-09T09:19:47;17.60;86.40
37276;DHT22;23166;51.150;21.620;2022-09-09T09:22:21;17.60;84.90
37276;DHT22;23166;51.150;21.620;2022-09-09T09:24:55;17.60;85.90
37276;DHT22;23166;51.150;21.620;2022-09-09T09:30:24;17.60;85.10
37276;DHT22;23166;51.150;21.620;2022-09-09T09:35:50;17.60;91.20
37276;DHT22;23166;51.150;21.620;2022-09-09T09:38:23;17.70;91.90
37276;DHT22;23166;51.150;21.620;2022-09-09T09:40:58;17.70;90.00
37276;DHT22;23166;51.150;21.620;2022-09-09T09:43:30;17.80;89.00
37276;DHT22;23166;51.150;21.620;2022-09-09T09:45:56;17.90;89.00
37276;DHT22;23166;51.150;21.620;2022-09-09T09:48:26;18.00;81.80
37276;DHT22;23166;51.150;21.620;2022-09-09T09:51:13;18.10;83.30
37276;DHT22;23166;51.150;21.620;2022-09-09T09:53:37;18.10;77.80
37276;DHT22;23166;51.150;21.620;2022-09-09T09:56:09;18.20;76.20
37276;DHT22;23166;51.150;21.620;2022-09-09T10:06:51;18.10;77.50
37276;DHT22;23166;51.150;21.620;2022-09-09T10:09:23;18.00;78.10
37276;DHT22;23166;51.150;21.620;2022-09-09T10:11:55;17.90;79.70
37276;DHT22;23166;51.150;21.620;2022-09-09T10:14:29;17.90;79.40
37276;DHT22;23166;51.150;21.620;2022-09-09T10:19:32;17.70;85.20
37276;DHT22;23166;51.150;21.620;2022-09-09T10:31:00;17.90;87.50
37276;DHT22;23166;51.150;21.620;2022-09-09T10:36:01;18.00;84.00
37276;DHT22;23166;51.150;21.620;2022-09-09T10:38:41;18.10;80.80
37276;DHT22;23166;51.150;21.620;2022-09-09T10:47:57;18.40;72.10
37276;DHT22;23166;51.150;21.620;2022-09-09T10:57:48;18.70;70.20
37276;DHT22;23166;51.150;21.620;2022-09-09T11:00:26;18.80;62.80
37276;DHT22;23166;51.150;21.620;2022-09-09T11:03:00;18.70;62.50
37276;DHT22;23166;51.150;21.620;2022-09-09T11:05:32;18.80;62.40
37276;DHT22;23166;51.150;21.620;2022-09-09T11:08:20;18.70;64.10
37276;DHT22;23166;51.150;21.620;2022-09-09T11:11:09;18.60;65.80
37276;DHT22;23166;51.150;21.620;2022-09-09T11:16:49;18.40;72.00
37276;DHT22;23166;51.150;21.620;2022-09-09T11:19:32;18.30;74.70
37276;DHT22;23166;51.150;21.620;2022-09-09T11:22:48;18.30;79.00
37276;DHT22;23166;51.150;21.620;2022-09-09T11:24:41;18.40;83.00
37276;DHT22;23166;51.150;21.620;2022-09-09T11:30:22;18.70;78.50
37276;DHT22;23166;51.150;21.620;2022-09-09T11:38:49;19.40;53.30
37276;DHT22;23166;51.150;21.620;2022-09-09T11:41:17;19.60;40.40
37276;DHT22;23166;51.150;21.620;2022-09-09T11:43:51;19.70;32.20
37276;DHT22;23166;51.150;21.620;2022-09-09T11:46:20;19.80;25.30
37276;DHT22;23166;51.150;21.620;2022-09-09T11:49:03;19.90;23.10
37276;DHT22;23166;51.150;21.620;2022-09-09T11:51:32;20.00;22.30
37276;DHT22;23166;51.150;21.620;2022-09-09T11:56:45;20.20;1.00
37276;DHT22;23166;51.150;21.620;2022-09-09T11:59:31;20.30;1.00
37276;DHT22;23166;51.150;21.620;2022-09-09T12:12:49;20.60;1.00
37276;DHT22;23166;51.150;21.620;2022-09-09T12:15:21;20.50;1.00
37276;DHT22;23166;51.150;21.620;2022-09-09T12:17:50;20.40;1.00
37276;DHT22;23166;51.150;21.620;2022-09-09T12:20:23;20.40;1.00
37276;DHT22;23166;51.150;21.620;2022-09-09T12:31:43;20.10;1.00
37276;DHT22;23166;51.150;21.620;2022-09-09T12:34:11;20.10;1.00
37276;DHT22;23166;51.150;21.620;2022-09-09T12:36:39;20.10;1.00
37276;DHT22;23166;51.150;21.620;2022-09-09T12:39:16;20.00;1.00
37276;DHT22;23166;51.150;21.620;2022-09-09T12:41:40;20.00;1.00
37276;DHT22;23166;51.150;21.620;2022-09-09T12:44:09;20.00;1.00
37276;DHT22;23166;51.150;21.620;2022-09-09T12:46:44;20.00;1.00
37276;DHT22;23166;51.150;21.620;2022-09-09T12:49:37;19.90;1.00
37276;DHT22;23166;51.150;21.620;2022-09-09T12:54:50;19.80;1.00
37276;DHT22;23166;51.150;21.620;2022-09-09T12:57:19;19.70;1.00
37276;DHT22;23166;51.150;21.620;2022-09-09T12:59:47;19.70;2.90
37276;DHT22;23166;51.150;21.620;2022-09-09T13:02:23;19.60;10.70
37276;DHT22;23166;51.150;21.620;2022-09-09T13:04:51;19.70;5.00
37276;DHT22;23166;51.150;21.620;2022-09-09T13:07:19;19.70;1.00
37276;DHT22;23166;51.150;21.620;2022-09-09T13:09:49;19.80;1.00
37276;DHT22;23166;51.150;21.620;2022-09-09T13:12:23;19.80;1.00
37276;DHT22;23166;51.150;21.620;2022-09-09T13:14:53;19.70;1.00
37276;DHT22;23166;51.150;21.620;2022-09-09T13:17:25;19.70;1.00
37276;DHT22;23166;51.150;21.620;2022-09-09T13:19:55;19.70;1.00
37276;DHT22;23166;51.150;21.620;2022-09-09T13:22:34;19.80;1.00
37276;DHT22;23166;51.150;21.620;2022-09-09T13:25:04;19.70;1.00
37276;DHT22;23166;51.150;21.620;2022-09-09T13:27:36;19.70;1.00
37276;DHT22;23166;51.150;21.620;2022-09-09T13:30:28;19.70;1.00
37276;DHT22;23166;51.150;21.620;2022-09-09T13:35:54;19.70;1.00
37276;DHT22;23166;51.150;21.620;2022-09-09T13:38:22;19.70;1.00
37276;DHT22;23166;51.150;21.620;2022-09-09T13:43:26;19.80;1.00
37276;DHT22;23166;51.150;21.620;2022-09-09T13:45:55;19.90;1.00
37276;DHT22;23166;51.150;21.620;2022-09-09T13:48:22;19.90;1.00
37276;DHT22;23166;51.150;21.620;2022-09-09T13:50:58;19.90;1.00
37276;DHT22;23166;51.150;21.620;2022-09-09T13:53:21;19.90;1.00
37276;DHT22;23166;51.150;21.620;2022-09-09T13:55:48;19.80;1.00
37276;DHT22;23166;51.150;21.620;2022-09-09T13:58:15;19.70;1.00
37276;DHT22;23166;51.150;21.620;2022-09-09T14:00:44;19.60;1.30
37276;DHT22;23166;51.150;21.620;2022-09-09T14:03:10;19.50;7.70
37276;DHT22;23166;51.150;21.620;2022-09-09T14:05:37;19.40;3.90
37276;DHT22;23166;51.150;21.620;2022-09-09T14:08:04;19.40;12.30
37276;DHT22;23166;51.150;21.620;2022-09-09T14:10:41;19.50;16.70
37276;DHT22;23166;51.150;21.620;2022-09-09T14:13:07;19.60;15.50
37276;DHT22;23166;51.150;21.620;2022-09-09T14:15:34;19.80;1.00
37276;DHT22;23166;51.150;21.620;2022-09-09T14:18:00;19.90;1.00
37276;DHT22;23166;51.150;21.620;2022-09-09T14:20:28;19.90;1.00
37276;DHT22;23166;51.150;21.620;2022-09-09T14:22:54;19.90;1.00
37276;DHT22;23166;51.150;21.620;2022-09-09T14:25:21;19.90;1.00
37276;DHT22;23166;51.150;21.620;2022-09-09T14:27:47;20.00;1.00
37276;DHT22;23166;51.150;21.620;2022-09-09T14:30:13;20.00;1.00
37276;DHT22;23166;51.150;21.620;2022-09-09T14:32:40;20.00;1.00
37276;DHT22;23166;51.150;21.620;2022-09-09T14:35:07;19.90;1.00
37276;DHT22;23166;51.150;21.620;2022-09-09T14:37:33;19.80;1.00
37276;DHT22;23166;51.150;21.620;2022-09-09T14:40:00;19.70;1.00
37276;DHT22;23166;51.150;21.620;2022-09-09T14:42:26;19.70;1.00
37276;DHT22;23166;51.150;21.620;2022-09-09T14:44:52;19.60;1.00
37276;DHT22;23166;51.150;21.620;2022-09-09T14:47:19;19.50;1.00
37276;DHT22;23166;51.150;21.620;2022-09-09T14:49:45;19.50;1.00
37276;DHT22;23166;51.150;21.620;2022-09-09T14:52:14;19.40;4.60
37276;DHT22;23166;51.150;21.620;2022-09-09T14:54:40;19.30;1.00
37276;DHT22;23166;51.150;21.620;2022-09-09T14:57:07;19.40;1.00
37276;DHT22;23166;51.150;21.620;2022-09-09T14:59:33;19.30;1.00
37276;DHT22;23166;51.150;21.620;2022-09-09T15:02:00;19.20;1.60
37276;DHT22;23166;51.150;21.620;2022-09-09T15:04:28;19.10;5.70
37276;DHT22;23166;51.150;21.620;2022-09-09T15:06:55;19.10;9.80
37276;DHT22;23166;51.150;21.620;2022-09-09T15:09:21;19.10;13.90
37276;DHT22;23166;51.150;21.620;2022-09-09T15:11:48;19.00;8.20
37276;DHT22;23166;51.150;21.620;2022-09-09T15:14:15;19.10;17.40
37276;DHT22;23166;51.150;21.620;2022-09-09T15:16:42;19.10;14.20
37276;DHT22;23166;51.150;21.620;2022-09-09T15:19:08;19.10;8.70
37276;DHT22;23166;51.150;21.620;2022-09-09T15:21:36;19.20;1.00
37276;DHT22;23166;51.150;21.620;2022-09-09T15:24:03;19.20;1.90
37276;DHT22;23166;51.150;21.620;2022-09-09T15:26:30;19.20;4.90
37276;DHT22;23166;51.150;21.620;2022-09-09T15:28:57;19.30;1.00
37276;DHT22;23166;51.150;21.620;2022-09-09T15:31:28;19.30;1.00
37276;DHT22;23166;51.150;21.620;2022-09-09T15:34:00;19.30;1.00
37276;DHT22;23166;51.150;21.620;2022-09-09T15:36:29;19.30;1.00
37276;DHT22;23166;51.150;21.620;2022-09-09T15:38:59;19.20;1.00
37276;DHT22;23166;51.150;21.620;2022-09-09T15:41:26;19.20;1.00
37276;DHT22;23166;51.150;21.620;2022-09-09T15:43:54;19.10;1.00
37276;DHT22;23166;51.150;21.620;2022-09-09T15:51:38;18.90;10.10
37276;DHT22;23166;51.150;21.620;2022-09-09T15:54:04;18.80;13.00
37276;DHT22;23166;51.150;21.620;2022-09-09T15:56:31;18.70;16.80
37276;DHT22;23166;51.150;21.620;2022-09-09T15:59:01;18.60;22.00
37276;DHT22;23166;51.150;21.620;2022-09-09T16:01:29;18.50;21.90
37276;DHT22;23166;51.150;21.620;2022-09-09T16:03:58;18.30;28.70
37276;DHT22;23166;51.150;21.620;2022-09-09T16:06:25;18.10;35.80
37276;DHT22;23166;51.150;21.620;2022-09-09T16:08:54;18.00;44.40
37276;DHT22;23166;51.150;21.620;2022-09-09T16:11:23;17.90;48.30
37276;DHT22;23166;51.150;21.620;2022-09-09T16:13:51;17.70;54.10
37276;DHT22;23166;51.150;21.620;2022-09-09T16:16:20;17.60;56.10
37276;DHT22;23166;51.150;21.620;2022-09-09T16:18:51;17.50;59.80
37276;DHT22;23166;51.150;21.620;2022-09-09T16:23:51;17.30;67.90
37276;DHT22;23166;51.150;21.620;2022-09-09T16:26:19;17.20;70.00
37276;DHT22;23166;51.150;21.620;2022-09-09T16:28:46;17.10;73.60
37276;DHT22;23166;51.150;21.620;2022-09-09T16:31:18;17.00;73.60
37276;DHT22;23166;51.150;21.620;2022-09-09T16:33:45;17.00;76.10
37276;DHT22;23166;51.150;21.620;2022-09-09T16:39:04;16.90;75.90
37276;DHT22;23166;51.150;21.620;2022-09-09T16:41:31;16.90;76.60
37276;DHT22;23166;51.150;21.620;2022-09-09T16:44:00;16.80;78.10
37276;DHT22;23166;51.150;21.620;2022-09-09T16:46:29;16.70;77.50
37276;DHT22;23166;51.150;21.620;2022-09-09T16:48:57;16.60;81.00
37276;DHT22;23166;51.150;21.620;2022-09-09T16:51:27;16.60;78.30
37276;DHT22;23166;51.150;21.620;2022-09-09T16:53:55;16.50;79.00
37276;DHT22;23166;51.150;21.620;2022-09-09T16:56:23;16.50;79.10
37276;DHT22;23166;51.150;21.620;2022-09-09T16:58:55;16.40;80.20
37276;DHT22;23166;51.150;21.620;2022-09-09T17:01:23;16.30;80.30
37276;DHT22;23166;51.150;21.620;2022-09-09T17:03:55;16.30;81.50
37276;DHT22;23166;51.150;21.620;2022-09-09T17:06:22;16.20;85.30
37276;DHT22;23166;51.150;21.620;2022-09-09T17:08:54;16.10;89.70
37276;DHT22;23166;51.150;21.620;2022-09-09T17:11:20;16.10;90.30
37276;DHT22;23166;51.150;21.620;2022-09-09T17:13:47;16.10;90.40
37276;DHT22;23166;51.150;21.620;2022-09-09T17:16:15;16.00;90.60
37276;DHT22;23166;51.150;21.620;2022-09-09T17:18:43;16.00;91.20
37276;DHT22;23166;51.150;21.620;2022-09-09T17:21:12;15.90;91.50
37276;DHT22;23166;51.150;21.620;2022-09-09T17:23:41;15.90;92.30
37276;DHT22;23166;51.150;21.620;2022-09-09T17:26:10;15.80;92.10
37276;DHT22;23166;51.150;21.620;2022-09-09T17:28:38;15.80;91.00
37276;DHT22;23166;51.150;21.620;2022-09-09T17:31:10;15.80;91.70
37276;DHT22;23166;51.150;21.620;2022-09-09T17:33:39;15.70;92.00
37276;DHT22;23166;51.150;21.620;2022-09-09T17:36:14;15.70;92.30
37276;DHT22;23166;51.150;21.620;2022-09-09T17:38:42;15.70;92.40
37276;DHT22;23166;51.150;21.620;2022-09-09T17:41:15;15.70;92.20
37276;DHT22;23166;51.150;21.620;2022-09-09T17:43:41;15.70;92.50
37276;DHT22;23166;51.150;21.620;2022-09-09T17:46:14;15.70;92.60
37276;DHT22;23166;51.150;21.620;2022-09-09T17:48:42;15.60;92.80
37276;DHT22;23166;51.150;21.620;2022-09-09T17:51:12;15.60;92.60
37276;DHT22;23166;51.150;21.620;2022-09-09T17:53:44;15.60;92.90
37276;DHT22;23166;51.150;21.620;2022-09-09T17:56:13;15.60;93.00
37276;DHT22;23166;51.150;21.620;2022-09-09T17:58:40;15.60;93.00
37276;DHT22;23166;51.150;21.620;2022-09-09T18:01:10;15.60;93.00
37276;DHT22;23166;51.150;21.620;2022-09-09T18:03:39;15.60;93.20
37276;DHT22;23166;51.150;21.620;2022-09-09T18:06:10;15.60;93.50